Time,TemperatureF,DewpointF,PressureIn,WindDirection,WindDirectionDegrees,WindSpeedMPH,WindSpeedGustMPH,Humidity,HourlyPrecipIn,Conditions,Clouds,dailyrainin,SoftwareType,DateUTC
2013-03-04 00:01:00,33.0,28.0,29.60,NW,315,29.0,-999.0,84,-99.99,,,-99.99,,2013-03-04 07:01:00,
2013-03-04 00:11:00,33.0,28.0,29.60,NW,315,29.0,-999.0,84,-99.99,,,-99.99,,2013-03-04 07:11:00,
2013-03-04 00:21:00,33.0,28.0,29.60,NW,314,34.0,-999.0,83,-99.99,,,-99.99,,2013-03-04 07:21:00,
2013-03-04 00:32:00,33.0,28.0,29.61,NW,323,29.0,-999.0,83,-99.99,,,-99.99,,2013-03-04 07:32:00,
2013-03-04 00:42:00,33.0,28.0,29.61,NNW,339,33.0,-999.0,83,-99.99,,,-99.99,,2013-03-04 07:42:00,
2013-03-04 00:51:00,33.0,28.0,29.61,NW,324,30.0,-999.0,82,-99.99,,,-99.99,,2013-03-04 07:51:00,
2013-03-04 01:02:00,33.0,28.0,29.61,NW,324,30.0,-999.0,82,-99.99,,,-99.99,,2013-03-04 08:02:00,
2013-03-04 01:11:00,33.0,27.0,29.63,NW,306,35.0,-999.0,80,-99.99,,,-99.99,,2013-03-04 08:11:00,
2013-03-04 01:22:00,32.0,28.0,29.65,NW,308,32.0,-999.0,84,-99.99,,,-99.99,,2013-03-04 08:22:00,
2013-03-04 01:32:00,32.0,28.0,29.66,NW,309,31.0,-999.0,85,-99.99,,,-99.99,,2013-03-04 08:32:00,
2013-03-04 01:42:00,32.0,27.0,29.66,NW,314,32.0,-999.0,83,-99.99,,,-99.99,,2013-03-04 08:42:00,
2013-03-04 01:52:00,31.0,26.0,29.69,NW,313,32.0,-999.0,83,-99.99,,,-99.99,,2013-03-04 08:52:00,
2013-03-04 02:01:00,31.0,26.0,29.69,NW,313,32.0,-999.0,83,-99.99,,,-99.99,,2013-03-04 09:01:00,
2013-03-04 02:11:00,31.0,25.0,29.68,NW,315,20.0,-999.0,81,-99.99,,,-99.99,,2013-03-04 09:11:00,
2013-03-04 02:21:00,31.0,25.0,29.69,NW,308,26.0,-999.0,80,-99.99,,,-99.99,,2013-03-04 09:21:00,
2013-03-04 02:32:00,31.0,25.0,29.68,NW,304,31.0,-999.0,80,-99.99,,,-99.99,,2013-03-04 09:32:00,
2013-03-04 02:42:00,31.0,25.0,29.71,NW,309,28.0,-999.0,78,-99.99,,,-99.99,,2013-03-04 09:42:00,
2013-03-04 02:52:00,31.0,25.0,29.69,NW,304,23.0,-999.0,78,-99.99,,,-99.99,,2013-03-04 09:52:00,
2013-03-04 03:01:00,31.0,24.0,29.70,NW,305,31.0,-999.0,76,-99.99,,,-99.99,,2013-03-04 10:01:00,
2013-03-04 03:11:00,31.0,24.0,29.71,NW,320,21.0,-999.0,76,-99.99,,,-99.99,,2013-03-04 10:11:00,
2013-03-04 03:22:00,30.0,23.0,29.69,NNW,330,19.0,-999.0,77,-99.99,,,-99.99,,2013-03-04 10:22:00,
2013-03-04 03:32:00,30.0,23.0,29.68,NW,314,27.0,-999.0,77,-99.99,,,-99.99,,2013-03-04 10:32:00,
2013-03-04 03:42:00,30.0,23.0,29.67,NW,316,29.0,-999.0,76,-99.99,,,-99.99,,2013-03-04 10:42:00,
2013-03-04 03:52:00,30.0,22.0,29.66,WNW,302,23.0,-999.0,74,-99.99,,,-99.99,,2013-03-04 10:52:00,
2013-03-04 04:02:00,29.0,22.0,29.69,WNW,301,24.0,-999.0,74,-99.99,,,-99.99,,2013-03-04 11:02:00,
2013-03-04 04:11:00,29.0,22.0,29.68,NW,308,19.0,-999.0,73,-99.99,,,-99.99,,2013-03-04 11:11:00,
2013-03-04 04:22:00,29.0,22.0,29.71,NW,312,20.0,-999.0,74,-99.99,,,-99.99,,2013-03-04 11:22:00,
2013-03-04 04:32:00,29.0,21.0,29.70,NW,311,22.0,-999.0,71,-99.99,,,-99.99,,2013-03-04 11:32:00,
2013-03-04 04:42:00,29.0,20.0,29.70,NW,313,22.0,-999.0,68,-99.99,,,-99.99,,2013-03-04 11:42:00,
2013-03-04 04:52:00,29.0,19.0,29.71,NW,314,18.0,-999.0,65,-99.99,,,-99.99,,2013-03-04 11:52:00,
2013-03-04 05:01:00,29.0,19.0,29.71,NW,314,18.0,-999.0,65,-99.99,,,-99.99,,2013-03-04 12:01:00,
2013-03-04 05:11:00,29.0,19.0,29.71,WNW,302,20.0,-999.0,66,-99.99,,,-99.99,,2013-03-04 12:11:00,
2013-03-04 05:22:00,28.0,19.0,29.74,NW,306,17.0,-999.0,66,-99.99,,,-99.99,,2013-03-04 12:22:00,
2013-03-04 05:32:00,28.0,19.0,29.72,NW,308,21.0,-999.0,67,-99.99,,,-99.99,,2013-03-04 12:32:00,
2013-03-04 05:42:00,28.0,18.0,29.72,NW,306,20.0,-999.0,67,-99.99,,,-99.99,,2013-03-04 12:42:00,
2013-03-04 05:52:00,28.0,18.0,29.73,WNW,301,17.0,-999.0,67,-99.99,,,-99.99,,2013-03-04 12:52:00,
2013-03-04 06:02:00,27.0,18.0,29.72,West,280,11.0,-999.0,71,-99.99,,,-99.99,,2013-03-04 13:02:00,
2013-03-04 06:11:00,26.0,19.0,29.74,WNW,288,10.0,-999.0,75,-99.99,,,-99.99,,2013-03-04 13:11:00,
2013-03-04 06:21:00,26.0,19.0,29.73,WNW,282,9.0,-999.0,74,-99.99,,,-99.99,,2013-03-04 13:21:00,
2013-03-04 06:32:00,27.0,18.0,29.72,West,280,17.0,-999.0,68,-99.99,,,-99.99,,2013-03-04 13:32:00,
2013-03-04 06:42:00,27.0,18.0,29.72,WNW,284,11.0,-999.0,68,-99.99,,,-99.99,,2013-03-04 13:42:00,
2013-03-04 06:52:00,27.0,17.0,29.71,WNW,300,12.0,-999.0,66,-99.99,,,-99.99,,2013-03-04 13:52:00,
2013-03-04 07:01:00,27.0,17.0,29.76,WNW,284,10.0,-999.0,67,-99.99,,,-99.99,,2013-03-04 14:01:00,
2013-03-04 07:11:00,26.0,17.0,29.76,West,271,9.0,-999.0,69,-99.99,,,-99.99,,2013-03-04 14:11:00,
2013-03-04 07:22:00,26.0,17.0,29.76,West,279,8.0,-999.0,67,-99.99,,,-99.99,,2013-03-04 14:22:00,
2013-03-04 07:32:00,27.0,16.0,29.78,WNW,298,14.0,-999.0,63,-99.99,,,-99.99,,2013-03-04 14:32:00,
2013-03-04 07:42:00,27.0,15.0,29.77,WNW,294,22.0,-999.0,60,-99.99,,,-99.99,,2013-03-04 14:42:00,
2013-03-04 07:52:00,28.0,16.0,29.78,WNW,302,17.0,-999.0,60,-99.99,,,-99.99,,2013-03-04 14:52:00,
2013-03-04 08:01:00,28.0,14.0,29.79,WNW,300,21.0,-999.0,55,-99.99,,,-99.99,,2013-03-04 15:01:00,
2013-03-04 08:11:00,29.0,14.0,29.79,NW,304,23.0,-999.0,54,-99.99,,,-99.99,,2013-03-04 15:11:00,
2013-03-04 08:22:00,29.0,13.0,29.78,WNW,299,27.0,-999.0,50,-99.99,,,-99.99,,2013-03-04 15:22:00,
2013-03-04 08:32:00,29.0,12.0,29.78,NW,305,23.0,-999.0,50,-99.99,,,-99.99,,2013-03-04 15:32:00,
2013-03-04 08:42:00,28.0,12.0,29.81,NW,314,32.0,-999.0,49,-99.99,,,-99.99,,2013-03-04 15:42:00,
2013-03-04 08:52:00,29.0,11.0,29.81,WNW,302,31.0,-999.0,45,-99.99,,,-99.99,,2013-03-04 15:52:00,
2013-03-04 09:02:00,30.0,10.0,29.81,NW,319,35.0,-999.0,42,-99.99,,,-99.99,,2013-03-04 16:02:00,
2013-03-04 09:11:00,30.0,10.0,29.80,NW,307,30.0,-999.0,43,-99.99,,,-99.99,,2013-03-04 16:11:00,
2013-03-04 09:21:00,30.0,9.0,29.81,NW,313,42.0,-999.0,41,-99.99,,,-99.99,,2013-03-04 16:21:00,
2013-03-04 09:32:00,30.0,9.0,29.81,NW,307,40.0,-999.0,41,-99.99,,,-99.99,,2013-03-04 16:32:00,
2013-03-04 09:42:00,30.0,9.0,29.80,NW,305,42.0,-999.0,40,-99.99,,,-99.99,,2013-03-04 16:42:00,
2013-03-04 09:52:00,30.0,8.0,29.80,NW,308,29.0,-999.0,39,-99.99,,,-99.99,,2013-03-04 16:52:00,
2013-03-04 10:02:00,30.0,8.0,29.81,NW,307,26.0,-999.0,38,-99.99,,,-99.99,,2013-03-04 17:02:00,
2013-03-04 10:11:00,31.0,7.0,29.82,NW,313,38.0,-999.0,36,-99.99,,,-99.99,,2013-03-04 17:11:00,
2013-03-04 10:22:00,31.0,8.0,29.81,WNW,300,34.0,-999.0,37,-99.99,,,-99.99,,2013-03-04 17:22:00,
2013-03-04 10:32:00,31.0,7.0,29.81,NW,306,35.0,-999.0,37,-99.99,,,-99.99,,2013-03-04 17:32:00,
2013-03-04 10:42:00,31.0,7.0,29.80,NW,315,36.0,-999.0,36,-99.99,,,-99.99,,2013-03-04 17:42:00,
2013-03-04 10:52:00,31.0,8.0,29.81,NW,323,37.0,-999.0,36,-99.99,,,-99.99,,2013-03-04 17:52:00,
2013-03-04 11:01:00,31.0,7.0,29.82,NW,306,30.0,-999.0,36,-99.99,,,-99.99,,2013-03-04 18:01:00,
2013-03-04 11:11:00,32.0,7.0,29.81,NW,308,34.0,-999.0,35,-99.99,,,-99.99,,2013-03-04 18:11:00,
2013-03-04 11:22:00,31.0,5.0,29.80,WNW,293,36.0,-999.0,33,-99.99,,,-99.99,,2013-03-04 18:22:00,
2013-03-04 11:32:00,31.0,6.0,29.82,WNW,294,36.0,-999.0,34,-99.99,,,-99.99,,2013-03-04 18:32:00,
2013-03-04 11:42:00,33.0,6.0,29.80,WNW,290,30.0,-999.0,31,-99.99,,,-99.99,,2013-03-04 18:42:00,
2013-03-04 11:52:00,31.0,9.0,29.82,NW,316,31.0,-999.0,40,-99.99,,,-99.99,,2013-03-04 18:52:00,
2013-03-04 12:02:00,31.0,9.0,29.82,NW,316,31.0,-999.0,40,-99.99,,,-99.99,,2013-03-04 19:02:00,
2013-03-04 12:11:00,31.0,9.0,29.82,WNW,303,30.0,-999.0,40,-99.99,,,-99.99,,2013-03-04 19:11:00,
2013-03-04 12:22:00,28.0,9.0,29.81,NW,314,45.0,-999.0,44,-99.99,,,-99.99,,2013-03-04 19:22:00,
2013-03-04 12:32:00,30.0,3.0,29.83,WNW,303,31.0,-999.0,31,-99.99,,,-99.99,,2013-03-04 19:32:00,
2013-03-04 12:42:00,29.0,2.0,29.82,NW,308,54.0,-999.0,31,-99.99,,,-99.99,,2013-03-04 19:42:00,
2013-03-04 12:52:00,29.0,0.0,29.80,NW,305,52.0,-999.0,28,-99.99,,,-99.99,,2013-03-04 19:52:00,
2013-03-04 13:02:00,29.0,0.0,29.81,WNW,303,52.0,-999.0,28,-99.99,,,-99.99,,2013-03-04 20:02:00,
2013-03-04 13:11:00,29.0,3.0,29.80,WNW,293,52.0,-999.0,33,-99.99,,,-99.99,,2013-03-04 20:11:00,
2013-03-04 13:22:00,28.0,1.0,29.80,WNW,297,50.0,-999.0,30,-99.99,,,-99.99,,2013-03-04 20:22:00,
2013-03-04 13:32:00,29.0,2.0,29.83,NW,304,40.0,-999.0,31,-99.99,,,-99.99,,2013-03-04 20:32:00,
2013-03-04 13:42:00,29.0,2.0,29.83,NW,304,40.0,-999.0,31,-99.99,,,-99.99,,2013-03-04 20:42:00,
2013-03-04 13:52:00,25.0,10.0,29.84,NW,308,66.0,-999.0,51,-99.99,,,-99.99,,2013-03-04 20:52:00,
2013-03-04 14:02:00,27.0,4.0,29.84,NW,305,59.0,-999.0,37,-99.99,,,-99.99,,2013-03-04 21:02:00,
2013-03-04 14:12:00,27.0,8.0,29.86,WNW,293,57.0,-999.0,45,-99.99,,,-99.99,,2013-03-04 21:12:00,
2013-03-04 14:22:00,27.0,5.0,29.87,WNW,298,47.0,-999.0,39,-99.99,,,-99.99,,2013-03-04 21:22:00,
2013-03-04 14:32:00,27.0,3.0,29.87,WNW,289,52.0,-999.0,34,-99.99,,,-99.99,,2013-03-04 21:32:00,
2013-03-04 14:42:00,26.0,4.0,29.88,WNW,293,39.0,-999.0,37,-99.99,,,-99.99,,2013-03-04 21:42:00,
2013-03-04 14:52:00,27.0,3.0,29.88,WNW,291,45.0,-999.0,36,-99.99,,,-99.99,,2013-03-04 21:52:00,
2013-03-04 15:02:00,26.0,7.0,29.89,WNW,286,45.0,-999.0,45,-99.99,,,-99.99,,2013-03-04 22:02:00,
2013-03-04 15:12:00,25.0,9.0,29.90,WNW,295,45.0,-999.0,49,-99.99,,,-99.99,,2013-03-04 22:12:00,
2013-03-04 15:22:00,24.0,9.0,29.92,WNW,296,55.0,-999.0,53,-99.99,,,-99.99,,2013-03-04 22:22:00,
2013-03-04 15:32:00,26.0,6.0,29.89,WNW,289,35.0,-999.0,41,-99.99,,,-99.99,,2013-03-04 22:32:00,
2013-03-04 15:42:00,23.0,8.0,29.90,WNW,291,52.0,-999.0,52,-99.99,,,-99.99,,2013-03-04 22:42:00,
2013-03-04 15:52:00,21.0,12.0,29.93,NW,306,40.0,-999.0,70,-99.99,,,-99.99,,2013-03-04 22:52:00,
2013-03-04 16:02:00,21.0,12.0,29.93,NW,306,40.0,-999.0,70,-99.99,,,-99.99,,2013-03-04 23:02:00,
2013-03-04 16:11:00,22.0,10.0,29.93,WNW,285,47.0,-999.0,61,-99.99,,,-99.99,,2013-03-04 23:11:00,
2013-03-04 16:22:00,21.0,13.0,29.92,WNW,293,35.0,-999.0,72,-99.99,,,-99.99,,2013-03-04 23:22:00,
2013-03-04 16:32:00,20.0,13.0,29.95,WNW,290,38.0,-999.0,71,-99.99,,,-99.99,,2013-03-04 23:32:00,
2013-03-04 16:42:00,21.0,12.0,29.96,WNW,303,42.0,-999.0,70,-99.99,,,-99.99,,2013-03-04 23:42:00,
2013-03-04 16:52:00,21.0,8.0,29.96,WNW,297,40.0,-999.0,56,-99.99,,,-99.99,,2013-03-04 23:52:00,
2013-03-04 17:02:00,20.0,13.0,29.99,WNW,300,54.0,-999.0,76,-99.99,,,-99.99,,2013-03-05 00:02:00,
2013-03-04 17:11:00,20.0,13.0,29.99,WNW,300,54.0,-999.0,76,-99.99,,,-99.99,,2013-03-05 00:11:00,
2013-03-04 17:21:00,20.0,10.0,29.96,NW,305,51.0,-999.0,62,-99.99,,,-99.99,,2013-03-05 00:21:00,
2013-03-04 17:32:00,20.0,8.0,29.99,WNW,296,37.0,-999.0,59,-99.99,,,-99.99,,2013-03-05 00:32:00,
2013-03-04 17:42:00,20.0,8.0,29.99,WNW,300,43.0,-999.0,59,-99.99,,,-99.99,,2013-03-05 00:42:00,
2013-03-04 17:51:00,19.0,11.0,30.01,WNW,300,42.0,-999.0,69,-99.99,,,-99.99,,2013-03-05 00:51:00,
2013-03-04 18:01:00,19.0,11.0,29.99,WNW,289,38.0,-999.0,70,-99.99,,,-99.99,,2013-03-05 01:01:00,
2013-03-04 18:12:00,19.0,7.0,30.01,NW,309,51.0,-999.0,60,-99.99,,,-99.99,,2013-03-05 01:12:00,
2013-03-04 18:22:00,19.0,8.0,30.02,NW,304,42.0,-999.0,60,-99.99,,,-99.99,,2013-03-05 01:22:00,
2013-03-04 18:32:00,19.0,9.0,30.03,WNW,302,35.0,-999.0,63,-99.99,,,-99.99,,2013-03-05 01:32:00,
2013-03-04 18:42:00,19.0,9.0,30.03,WNW,302,35.0,-999.0,63,-99.99,,,-99.99,,2013-03-05 01:42:00,
2013-03-04 18:52:00,18.0,8.0,30.02,NW,308,46.0,-999.0,65,-99.99,,,-99.99,,2013-03-05 01:52:00,
2013-03-04 19:01:00,18.0,9.0,30.04,WNW,302,28.0,-999.0,67,-99.99,,,-99.99,,2013-03-05 02:01:00,
2013-03-04 19:11:00,17.0,11.0,30.06,WNW,298,26.0,-999.0,77,-99.99,,,-99.99,,2013-03-05 02:11:00,
2013-03-04 19:22:00,17.0,10.0,30.06,NW,306,40.0,-999.0,72,-99.99,,,-99.99,,2013-03-05 02:22:00,
2013-03-04 19:32:00,17.0,8.0,30.06,NW,311,29.0,-999.0,66,-99.99,,,-99.99,,2013-03-05 02:32:00,
2013-03-04 19:42:00,17.0,6.0,30.08,NW,316,29.0,-999.0,62,-99.99,,,-99.99,,2013-03-05 02:42:00,
2013-03-04 19:52:00,17.0,9.0,30.10,WNW,300,31.0,-999.0,69,-99.99,,,-99.99,,2013-03-05 02:52:00,
2013-03-04 20:02:00,17.0,11.0,30.06,WNW,301,30.0,-999.0,77,-99.99,,,-99.99,,2013-03-05 03:02:00,
2013-03-04 20:12:00,17.0,8.0,30.08,WNW,299,40.0,-999.0,67,-99.99,,,-99.99,,2013-03-05 03:12:00,
2013-03-04 20:22:00,17.0,9.0,30.08,NW,304,30.0,-999.0,70,-99.99,,,-99.99,,2013-03-05 03:22:00,
2013-03-04 20:32:00,17.0,9.0,30.10,NW,310,44.0,-999.0,73,-99.99,,,-99.99,,2013-03-05 03:32:00,
2013-03-04 20:42:00,17.0,10.0,30.11,NW,306,33.0,-999.0,75,-99.99,,,-99.99,,2013-03-05 03:42:00,
2013-03-04 20:52:00,17.0,9.0,30.08,NW,319,40.0,-999.0,72,-99.99,,,-99.99,,2013-03-05 03:52:00,
2013-03-04 21:02:00,17.0,10.0,30.09,NW,314,26.0,-999.0,75,-99.99,,,-99.99,,2013-03-05 04:02:00,
2013-03-04 21:12:00,16.0,10.0,30.08,NW,308,36.0,-999.0,75,-99.99,,,-99.99,,2013-03-05 04:12:00,
2013-03-04 21:22:00,17.0,10.0,30.09,NW,306,39.0,-999.0,76,-99.99,,,-99.99,,2013-03-05 04:22:00,
2013-03-04 21:32:00,16.0,10.0,30.11,WNW,294,38.0,-999.0,77,-99.99,,,-99.99,,2013-03-05 04:32:00,
2013-03-04 21:42:00,17.0,8.0,30.11,NW,312,43.0,-999.0,67,-99.99,,,-99.99,,2013-03-05 04:42:00,
2013-03-04 21:52:00,17.0,7.0,30.12,NW,315,38.0,-999.0,66,-99.99,,,-99.99,,2013-03-05 04:52:00,
2013-03-04 22:02:00,17.0,7.0,30.12,NW,308,39.0,-999.0,65,-99.99,,,-99.99,,2013-03-05 05:02:00,
2013-03-04 22:12:00,17.0,8.0,30.13,NW,312,37.0,-999.0,68,-99.99,,,-99.99,,2013-03-05 05:12:00,
2013-03-04 22:22:00,17.0,9.0,30.14,WNW,301,36.0,-999.0,72,-99.99,,,-99.99,,2013-03-05 05:22:00,
2013-03-04 22:32:00,17.0,9.0,30.12,NW,306,33.0,-999.0,71,-99.99,,,-99.99,,2013-03-05 05:32:00,
2013-03-04 22:42:00,17.0,9.0,30.13,WNW,296,29.0,-999.0,71,-99.99,,,-99.99,,2013-03-05 05:42:00,
2013-03-04 22:52:00,17.0,9.0,30.15,NW,310,29.0,-999.0,73,-99.99,,,-99.99,,2013-03-05 05:52:00,
2013-03-04 23:01:00,16.0,9.0,30.15,WNW,303,27.0,-999.0,72,-99.99,,,-99.99,,2013-03-05 06:01:00,
2013-03-04 23:11:00,16.0,10.0,30.13,NW,315,31.0,-999.0,75,-99.99,,,-99.99,,2013-03-05 06:11:00,
2013-03-04 23:22:00,16.0,10.0,30.13,NW,308,30.0,-999.0,79,-99.99,,,-99.99,,2013-03-05 06:22:00,
2013-03-04 23:32:00,16.0,8.0,30.14,NW,312,34.0,-999.0,72,-99.99,,,-99.99,,2013-03-05 06:32:00,
2013-03-04 23:42:00,16.0,8.0,30.14,NW,312,34.0,-999.0,72,-99.99,,,-99.99,,2013-03-05 06:42:00,
2013-03-04 23:52:00,16.0,9.0,30.15,NW,310,30.0,-999.0,74,-99.99,,,-99.99,,2013-03-05 06:52:00,